createdAt,value
2019-05-26T00:01:21.823Z,97675.70
2019-05-26T00:03:51.320Z,97670.33
2019-05-26T00:06:21.201Z,97669.31
2019-05-26T00:08:51.926Z,97668.70
2019-05-26T00:11:22.811Z,97675.64
2019-05-26T00:13:54.681Z,97672.47
2019-05-26T00:16:25.006Z,97664.09
2019-05-26T00:18:56.058Z,97669.83
2019-05-26T00:21:27.462Z,97669.37
2019-05-26T00:23:56.829Z,97667.95
2019-05-26T00:26:29.112Z,97663.73
2019-05-26T00:28:58.509Z,97665.34
2019-05-26T00:31:28.994Z,97658.55
2019-05-26T00:33:59.913Z,97655.16
2019-05-26T00:36:32.401Z,97657.77
2019-05-26T00:39:02.704Z,97649.25
2019-05-26T00:41:32.110Z,97648.67
2019-05-26T00:44:01.571Z,97643.27
2019-05-26T00:46:32.147Z,97644.30
2019-05-26T00:49:02.556Z,97633.55
2019-05-26T00:51:32.058Z,97637.51
2019-05-26T00:54:01.425Z,97640.63
2019-05-26T00:56:31.990Z,97644.80
2019-05-26T00:59:02.395Z,97643.19
2019-05-26T01:01:33.596Z,97638.70
2019-05-26T01:04:03.106Z,97638.66
2019-05-26T01:06:33.824Z,97632.88
2019-05-26T01:09:03.287Z,97629.09
2019-05-26T01:11:33.913Z,97633.78
2019-05-26T01:14:03.303Z,97637.47
2019-05-26T01:16:33.792Z,97637.17
2019-05-26T01:19:05.119Z,97631.89
2019-05-26T01:21:37.942Z,97632.98
2019-05-26T01:24:07.392Z,97641.09
2019-05-26T01:26:38.153Z,97637.66
2019-05-26T01:29:08.621Z,97637.86
2019-05-26T01:31:38.977Z,97636.82
2019-05-26T01:34:09.992Z,97641.56
2019-05-26T01:36:39.582Z,97637.16
2019-05-26T01:39:12.653Z,97643.95
2019-05-26T01:41:43.368Z,97637.70
2019-05-26T01:44:15.021Z,97641.17
2019-05-26T01:46:46.093Z,97647.66
2019-05-26T01:49:17.943Z,97651.02
2019-05-26T01:51:47.338Z,97647.34
2019-05-26T01:54:19.886Z,97647.72
2019-05-26T01:56:50.448Z,97652.66
2019-05-26T01:59:21.433Z,97648.05
2019-05-26T02:01:50.898Z,97648.59
2019-05-26T02:04:20.300Z,97648.70
2019-05-26T02:06:50.576Z,97648.34
2019-05-26T02:09:19.399Z,97650.31
2019-05-26T02:11:49.232Z,97642.52
2019-05-26T02:14:18.759Z,97644.87
2019-05-26T02:16:48.141Z,97646.48
2019-05-26T02:19:18.508Z,97645.52
2019-05-26T02:21:48.033Z,97638.30
2019-05-26T02:24:20.470Z,97639.84
2019-05-26T02:26:51.328Z,97637.83
2019-05-26T02:29:23.893Z,97640.76
2019-05-26T02:31:55.777Z,97639.55
2019-05-26T02:34:26.121Z,97637.59
2019-05-26T02:36:56.781Z,97641.89
2019-05-26T02:39:28.620Z,97647.43
2019-05-26T02:42:00.585Z,97643.59
2019-05-26T02:44:30.023Z,97636.49
2019-05-26T02:47:02.371Z,97640.23
2019-05-26T02:49:33.991Z,97640.04
2019-05-26T02:52:04.607Z,97642.92
2019-05-26T02:54:34.055Z,97636.90
2019-05-26T02:57:04.635Z,97642.85
2019-05-26T02:59:36.804Z,97642.00
2019-05-26T03:02:08.670Z,97638.74
2019-05-26T03:04:38.175Z,97642.53
2019-05-26T03:07:08.585Z,97643.77
2019-05-26T03:09:41.450Z,97648.07
2019-05-26T03:12:13.736Z,97651.75
2019-05-26T03:14:44.779Z,97655.20
2019-05-26T03:17:16.219Z,97657.72
2019-05-26T03:19:51.149Z,97654.37
2019-05-26T03:22:22.886Z,97661.67
2019-05-26T03:24:54.421Z,97654.61
2019-05-26T03:27:26.318Z,97650.25
2019-05-26T03:29:57.649Z,97653.73
2019-05-26T03:32:28.376Z,97655.73
2019-05-26T03:34:58.885Z,97652.84
2019-05-26T03:37:29.388Z,97652.87
2019-05-26T03:39:59.817Z,97656.50
2019-05-26T03:42:29.297Z,97660.97
2019-05-26T03:44:58.753Z,97660.42
2019-05-26T03:47:29.099Z,97655.55
2019-05-26T03:49:59.433Z,97663.61
2019-05-26T03:52:31.819Z,97667.77
2019-05-26T03:55:01.221Z,97668.92
2019-05-26T03:57:31.501Z,97658.74
2019-05-26T04:00:01.903Z,97659.33
2019-05-26T04:02:33.201Z,97659.17
2019-05-26T04:05:03.651Z,97664.41
2019-05-26T04:07:33.040Z,97667.41
2019-05-26T04:10:05.427Z,97679.06
2019-05-26T04:12:34.164Z,97679.03
2019-05-26T04:15:04.637Z,97686.22
2019-05-26T04:17:36.480Z,97689.20
2019-05-26T04:20:07.369Z,97688.58
2019-05-26T04:22:37.753Z,97683.05
2019-05-26T04:25:07.412Z,97688.03
2019-05-26T04:27:36.783Z,97694.02
2019-05-26T04:30:11.995Z,97688.31
2019-05-26T04:32:42.380Z,97690.56
2019-05-26T04:35:14.554Z,97697.92
2019-05-26T04:37:47.790Z,97704.77
2019-05-26T04:40:28.035Z,97699.42
2019-05-26T04:42:53.303Z,97704.45
2019-05-26T04:45:23.831Z,97705.73
2019-05-26T04:47:54.162Z,97703.83
2019-05-26T04:50:24.526Z,97709.03
2019-05-26T04:53:06.144Z,97712.63
2019-05-26T04:55:28.359Z,97712.23
2019-05-26T04:57:57.092Z,97705.83
2019-05-26T05:00:27.183Z,97711.05
2019-05-26T05:02:56.663Z,97715.29
2019-05-26T05:05:26.055Z,97716.89
2019-05-26T05:07:56.526Z,97713.59
2019-05-26T05:10:41.216Z,97716.03
2019-05-26T05:12:59.333Z,97718.93
2019-05-26T05:15:29.981Z,97713.78
2019-05-26T05:17:59.348Z,97714.95
2019-05-26T05:20:28.756Z,97713.38
2019-05-26T05:22:58.158Z,97710.83
2019-05-26T05:25:28.643Z,97704.72
2019-05-26T05:27:59.362Z,97709.24
2019-05-26T05:30:32.370Z,97709.24
2019-05-26T05:33:02.873Z,97704.27
2019-05-26T05:35:34.259Z,97704.52
2019-05-26T05:38:04.748Z,97700.80
2019-05-26T05:40:35.552Z,97697.78
2019-05-26T05:43:05.057Z,97697.44
2019-05-26T05:45:35.637Z,97695.24
2019-05-26T05:48:07.076Z,97698.70
2019-05-26T05:50:39.173Z,97678.95
2019-05-26T05:53:08.520Z,97694.94
2019-05-26T05:55:39.283Z,97692.95
2019-05-26T05:58:10.159Z,97697.55
2019-05-26T06:00:40.934Z,97701.57
2019-05-26T06:03:11.625Z,97697.56
2019-05-26T06:05:42.010Z,97700.66
2019-05-26T06:08:13.471Z,97701.54
2019-05-26T06:10:45.430Z,97706.37
2019-05-26T06:13:17.717Z,97709.77
2019-05-26T06:15:47.087Z,97700.90
2019-05-26T06:18:20.931Z,97710.30
2019-05-26T06:20:50.286Z,97703.99
2019-05-26T06:23:19.668Z,97709.55
2019-05-26T06:25:49.019Z,97718.97
2019-05-26T06:28:18.612Z,97715.58
2019-05-26T06:30:49.064Z,97703.36
2019-05-26T06:33:19.506Z,97710.34
2019-05-26T06:35:48.900Z,97711.62
2019-05-26T06:38:19.378Z,97707.69
2019-05-26T06:40:48.749Z,97707.30
2019-05-26T06:43:19.143Z,97711.16
2019-05-26T06:45:49.452Z,97712.20
2019-05-26T06:48:21.734Z,97712.77
2019-05-26T06:50:52.129Z,97712.95
2019-05-26T06:53:22.541Z,97708.75
2019-05-26T06:55:51.392Z,97704.94
2019-05-26T06:58:20.777Z,97696.53
2019-05-26T07:00:51.563Z,97704.98
2019-05-26T07:03:21.061Z,97702.25
2019-05-26T07:05:51.345Z,97696.55
2019-05-26T07:08:19.805Z,97710.12
2019-05-26T07:10:54.151Z,97709.73
2019-05-26T07:13:25.836Z,97705.08
2019-05-26T07:15:58.287Z,97700.20
2019-05-26T07:18:30.350Z,97700.99
2019-05-26T07:20:59.765Z,97699.73
2019-05-26T07:23:31.371Z,97693.95
2019-05-26T07:26:00.781Z,97691.59
2019-05-26T07:28:31.451Z,97693.30
2019-05-26T07:31:02.211Z,97691.44
2019-05-26T07:33:34.253Z,97696.14
2019-05-26T07:36:03.089Z,97694.67
2019-05-26T07:38:32.572Z,97689.55
2019-05-26T07:41:03.490Z,97690.73
2019-05-26T07:43:33.994Z,97693.70
2019-05-26T07:46:03.227Z,97697.49
2019-05-26T07:48:36.046Z,97698.23
2019-05-26T07:51:06.041Z,97692.91
2019-05-26T07:53:36.447Z,97697.36
2019-05-26T07:56:06.172Z,97695.82
2019-05-26T07:58:35.030Z,97701.49
2019-05-26T08:01:04.473Z,97692.17
2019-05-26T08:03:36.507Z,97690.72
2019-05-26T08:06:08.790Z,97685.65
2019-05-26T08:08:39.087Z,97682.98
2019-05-26T08:11:12.268Z,97685.98
2019-05-26T08:13:41.690Z,97683.42
2019-05-26T08:16:12.199Z,97685.33
2019-05-26T08:18:41.545Z,97680.91
2019-05-26T08:21:13.413Z,97679.45
2019-05-26T08:23:44.970Z,97681.12
2019-05-26T08:26:16.880Z,97679.48
2019-05-26T08:28:49.332Z,97663.98
2019-05-26T08:31:19.842Z,97666.89
2019-05-26T08:33:52.132Z,97664.77
2019-05-26T08:36:22.535Z,97666.11
2019-05-26T08:38:52.945Z,97660.52
2019-05-26T08:41:23.352Z,97662.13
2019-05-26T08:43:53.748Z,97667.13
2019-05-26T08:46:25.229Z,97658.17
2019-05-26T08:48:54.038Z,97659.61
2019-05-26T08:51:25.717Z,97657.42
2019-05-26T08:53:56.046Z,97653.66
2019-05-26T08:56:26.416Z,97648.28
2019-05-26T08:58:56.784Z,97641.25
2019-05-26T09:01:26.213Z,97636.90
2019-05-26T09:03:55.009Z,97637.61
2019-05-26T09:06:27.506Z,97641.45
2019-05-26T09:08:57.837Z,97629.41
2019-05-26T09:11:27.279Z,97631.20
2019-05-26T09:13:57.782Z,97633.72
2019-05-26T09:16:27.164Z,97629.02
2019-05-26T09:18:59.054Z,97632.69
2019-05-26T09:21:28.380Z,97622.50
2019-05-26T09:23:57.803Z,97628.22
2019-05-26T09:26:28.273Z,97630.87
2019-05-26T09:28:59.129Z,97624.88
2019-05-26T09:31:28.531Z,97630.14
2019-05-26T09:33:58.897Z,97627.81
2019-05-26T09:36:29.454Z,97620.95
2019-05-26T09:39:01.316Z,97614.88
2019-05-26T09:41:31.727Z,97621.56
2019-05-26T09:44:02.158Z,97622.44
2019-05-26T09:46:31.501Z,97619.72
2019-05-26T09:49:02.638Z,97621.80
2019-05-26T09:51:32.128Z,97620.64
2019-05-26T09:54:01.949Z,97617.11
2019-05-26T09:56:34.253Z,97623.64
2019-05-26T09:59:04.979Z,97615.87
2019-05-26T10:01:34.011Z,97618.84
2019-05-26T10:04:04.440Z,97622.48
2019-05-26T10:06:33.838Z,97607.39
2019-05-26T10:09:03.157Z,97616.03
2019-05-26T10:11:35.025Z,97615.11
2019-05-26T10:14:07.514Z,97617.33
2019-05-26T10:16:39.907Z,97620.85
2019-05-26T10:19:10.222Z,97624.96
2019-05-26T10:21:39.618Z,97617.84
2019-05-26T10:24:10.136Z,97619.80
2019-05-26T10:26:40.492Z,97621.60
2019-05-26T10:29:10.829Z,97621.13
2019-05-26T10:31:41.188Z,97620.36
2019-05-26T10:34:13.627Z,97620.70
2019-05-26T10:36:41.835Z,97615.78
2019-05-26T10:39:11.505Z,97616.17
2019-05-26T10:41:41.878Z,97606.00
2019-05-26T10:44:12.277Z,97602.42
2019-05-26T10:46:42.686Z,97601.08
2019-05-26T10:49:12.259Z,97604.86
2019-05-26T10:51:42.659Z,97604.77
2019-05-26T10:54:14.572Z,97609.44
2019-05-26T10:56:44.034Z,97603.96
2019-05-26T10:59:14.448Z,97596.06
2019-05-26T11:01:44.918Z,97596.52
2019-05-26T11:04:16.622Z,97606.42
2019-05-26T11:06:50.314Z,97599.80
2019-05-26T11:09:19.817Z,97598.28
2019-05-26T11:11:49.252Z,97595.91
2019-05-26T11:14:21.073Z,97596.30
2019-05-26T11:16:50.993Z,97596.95
2019-05-26T11:19:21.610Z,97595.21
2019-05-26T11:21:52.017Z,97596.96
2019-05-26T11:24:21.534Z,97595.25
2019-05-26T11:26:52.659Z,97585.16
2019-05-26T11:29:23.090Z,97583.40
2019-05-26T11:31:54.961Z,97581.80
2019-05-26T11:34:24.470Z,97576.55
2019-05-26T11:36:54.834Z,97572.17
2019-05-26T11:39:25.389Z,97568.21
2019-05-26T11:42:12.285Z,97569.86
2019-05-26T11:44:30.157Z,97565.89
2019-05-26T11:46:59.670Z,97566.84
2019-05-26T11:49:30.159Z,97566.70
2019-05-26T11:52:00.647Z,97564.17
2019-05-26T11:54:34.359Z,97560.99
2019-05-26T11:57:02.196Z,97558.78
2019-05-26T11:59:32.751Z,97553.95
2019-05-26T12:02:04.406Z,97549.48
2019-05-26T12:04:34.924Z,97545.66
2019-05-26T12:07:04.723Z,97539.73
2019-05-26T12:09:35.057Z,97537.47
2019-05-26T12:12:04.555Z,97535.10
2019-05-26T12:14:35.645Z,97530.75
2019-05-26T12:17:06.184Z,97530.23
2019-05-26T12:19:38.214Z,97526.91
2019-05-26T12:22:09.495Z,97528.04
2019-05-26T12:24:39.885Z,97519.80
2019-05-26T12:27:10.855Z,97523.39
2019-05-26T12:29:39.836Z,97510.13
2019-05-26T12:32:09.440Z,97514.41
2019-05-26T12:34:39.863Z,97514.35
2019-05-26T12:37:09.309Z,97511.28
2019-05-26T12:39:41.201Z,97502.63
2019-05-26T12:42:12.213Z,97503.92
2019-05-26T12:44:49.472Z,97502.16
2019-05-26T12:47:14.171Z,97494.47
2019-05-26T12:49:46.156Z,97493.38
2019-05-26T12:52:17.314Z,97492.95
2019-05-26T12:54:47.677Z,97487.02
2019-05-26T12:57:19.312Z,97486.70
2019-05-26T12:59:49.676Z,97482.77
2019-05-26T13:02:19.284Z,97484.55
2019-05-26T13:04:49.823Z,97475.33
2019-05-26T13:07:21.793Z,97470.60
2019-05-26T13:09:51.314Z,97475.46
2019-05-26T13:12:21.747Z,97470.31
2019-05-26T13:15:05.051Z,97465.40
2019-05-26T13:17:22.206Z,97471.33
2019-05-26T13:19:52.573Z,97466.14
2019-05-26T13:22:22.893Z,97466.70
2019-05-26T13:24:54.862Z,97463.33
2019-05-26T13:27:23.700Z,97465.14
2019-05-26T13:29:54.676Z,97457.23
2019-05-26T13:32:25.012Z,97456.95
2019-05-26T13:34:54.538Z,97459.62
2019-05-26T13:37:24.999Z,97462.98
2019-05-26T13:39:54.372Z,97461.05
2019-05-26T13:42:27.764Z,97455.98
2019-05-26T13:44:58.199Z,97457.05
2019-05-26T13:47:28.597Z,97459.38
2019-05-26T13:50:00.208Z,97455.59
2019-05-26T13:52:30.764Z,97453.29
2019-05-26T13:55:00.349Z,97447.91
2019-05-26T13:57:30.741Z,97450.89
2019-05-26T13:59:59.597Z,97445.45
2019-05-26T14:02:36.983Z,97441.20
2019-05-26T14:05:13.137Z,97447.11
2019-05-26T14:07:43.541Z,97446.34
2019-05-26T14:10:14.883Z,97448.72
2019-05-26T14:12:43.723Z,97457.36
2019-05-26T14:15:13.650Z,97452.49
2019-05-26T14:17:44.020Z,97447.62
2019-05-26T14:20:16.197Z,97459.00
2019-05-26T14:22:47.031Z,97449.00
2019-05-26T14:25:18.052Z,97458.27
2019-05-26T14:27:46.782Z,97454.52
2019-05-26T14:30:17.400Z,97443.22
2019-05-26T14:32:47.916Z,97442.91
2019-05-26T14:35:18.330Z,97440.02
2019-05-26T14:37:48.781Z,97442.53
2019-05-26T14:40:19.510Z,97441.86
2019-05-26T14:42:50.100Z,97439.31
2019-05-26T14:45:21.028Z,97434.81
2019-05-26T14:47:50.382Z,97430.20
2019-05-26T14:50:23.859Z,97434.02
2019-05-26T14:52:55.050Z,97430.45
2019-05-26T14:55:24.630Z,97431.41
2019-05-26T14:57:54.863Z,97433.70
2019-05-26T15:00:25.851Z,97428.88
2019-05-26T15:02:57.618Z,97425.09
2019-05-26T15:05:26.628Z,97417.97
2019-05-26T15:07:57.049Z,97419.16
2019-05-26T15:10:26.287Z,97408.13
2019-05-26T15:13:00.350Z,97414.88
2019-05-26T15:15:34.914Z,97412.84
2019-05-26T15:18:03.204Z,97409.06
2019-05-26T15:20:33.559Z,97405.72
2019-05-26T15:23:03.128Z,97404.11
2019-05-26T15:25:32.525Z,97404.86
2019-05-26T15:28:04.593Z,97400.64
2019-05-26T15:30:34.147Z,97396.63
2019-05-26T15:33:03.534Z,97393.36
2019-05-26T15:35:36.062Z,97396.74
2019-05-26T15:38:06.599Z,97400.01
2019-05-26T15:40:35.984Z,97397.52
2019-05-26T15:43:09.497Z,97403.01
2019-05-26T15:45:38.974Z,97405.06
2019-05-26T15:48:08.580Z,97399.77
2019-05-26T15:50:38.122Z,97396.83
2019-05-26T15:53:07.734Z,97397.02
2019-05-26T15:55:39.973Z,97397.30
2019-05-26T15:58:10.936Z,97394.67
2019-05-26T16:00:44.952Z,97393.06
2019-05-26T16:03:16.103Z,97391.42
2019-05-26T16:05:46.446Z,97393.01
2019-05-26T16:08:16.119Z,97390.03
2019-05-26T16:10:45.478Z,97393.27
2019-05-26T16:13:15.007Z,97394.02
2019-05-26T16:15:45.555Z,97386.92
2019-05-26T16:18:14.974Z,97388.72
2019-05-26T16:20:45.897Z,97385.61
2019-05-26T16:23:15.411Z,97389.52
2019-05-26T16:25:45.771Z,97378.87
2019-05-26T16:28:16.697Z,97376.09
2019-05-26T16:30:47.084Z,97382.66
2019-05-26T16:33:17.945Z,97373.98
2019-05-26T16:35:47.441Z,97378.41
2019-05-26T16:38:19.885Z,97379.90
2019-05-26T16:40:52.190Z,97376.21
2019-05-26T16:43:22.680Z,97387.75
2019-05-26T16:45:57.055Z,97381.11
2019-05-26T16:48:29.550Z,97375.56
2019-05-26T16:50:58.912Z,97378.99
2019-05-26T16:53:30.465Z,97374.58
2019-05-26T16:56:00.775Z,97375.09
2019-05-26T16:58:32.860Z,97374.33
2019-05-26T17:01:05.897Z,97375.02
2019-05-26T17:03:35.237Z,97375.91
2019-05-26T17:06:08.249Z,97368.06
2019-05-26T17:08:38.861Z,97366.30
2019-05-26T17:11:10.928Z,97369.98
2019-05-26T17:13:40.416Z,97370.58
2019-05-26T17:16:11.374Z,97366.97
2019-05-26T17:18:41.991Z,97367.30
2019-05-26T17:21:11.496Z,97368.06
2019-05-26T17:23:41.913Z,97364.94
2019-05-26T17:26:13.780Z,97365.81
2019-05-26T17:28:45.647Z,97362.55
2019-05-26T17:31:15.117Z,97357.01
2019-05-26T17:33:47.512Z,97360.50
2019-05-26T17:36:21.567Z,97363.20
2019-05-26T17:38:50.335Z,97359.25
2019-05-26T17:41:20.711Z,97365.55
2019-05-26T17:43:52.887Z,97353.22
2019-05-26T17:46:23.606Z,97357.15
2019-05-26T17:48:53.004Z,97357.49
2019-05-26T17:51:23.581Z,97348.48
2019-05-26T17:53:53.060Z,97349.46
2019-05-26T17:56:22.452Z,97345.36
2019-05-26T17:58:52.829Z,97344.53
2019-05-26T18:01:23.221Z,97345.88
2019-05-26T18:03:53.944Z,97342.46
2019-05-26T18:06:24.454Z,97342.77
2019-05-26T18:08:55.280Z,97339.91
2019-05-26T18:11:26.409Z,97344.66
2019-05-26T18:13:58.491Z,97348.22
2019-05-26T18:16:28.023Z,97340.75
2019-05-26T18:19:01.175Z,97334.72
2019-05-26T18:21:31.591Z,97339.24
2019-05-26T18:24:04.077Z,97341.42
2019-05-26T18:26:34.694Z,97329.94
2019-05-26T18:29:05.307Z,97332.70
2019-05-26T18:31:36.145Z,97328.83
2019-05-26T18:34:07.415Z,97328.81
2019-05-26T18:36:39.762Z,97325.53
2019-05-26T18:39:12.573Z,97323.20
2019-05-26T18:41:42.998Z,97320.09
2019-05-26T18:44:13.379Z,97325.75
2019-05-26T18:46:45.772Z,97327.24
2019-05-26T18:49:19.622Z,97299.43
2019-05-26T18:51:50.862Z,97323.77
2019-05-26T18:54:21.372Z,97322.26
2019-05-26T18:56:50.860Z,97313.23
2019-05-26T18:59:25.944Z,97334.05
2019-05-26T19:01:59.898Z,97336.30
2019-05-26T19:04:30.201Z,97332.00
2019-05-26T19:07:00.502Z,97330.14
2019-05-26T19:09:31.709Z,97330.14
2019-05-26T19:12:05.717Z,97336.19
2019-05-26T19:14:36.217Z,97335.46
2019-05-26T19:17:06.071Z,97335.46
2019-05-26T19:19:38.490Z,97341.09
2019-05-26T19:22:09.818Z,97340.17
2019-05-26T19:24:40.449Z,97347.41
2019-05-26T19:27:09.758Z,97343.45
2019-05-26T19:29:40.239Z,97331.65
2019-05-26T19:32:09.972Z,97331.65
2019-05-26T19:34:40.561Z,97351.38
2019-05-26T19:37:12.171Z,97353.80
2019-05-26T19:39:43.473Z,97351.63
2019-05-26T19:42:12.246Z,97359.84
2019-05-26T19:44:45.891Z,97354.69
2019-05-26T19:47:19.285Z,97358.52
2019-05-26T19:49:52.951Z,97358.36
2019-05-26T19:52:22.293Z,97359.98
2019-05-26T19:54:52.727Z,97366.63
2019-05-26T19:57:26.682Z,97360.06
2019-05-26T19:59:55.989Z,97359.71
2019-05-26T20:02:25.972Z,97359.73
2019-05-26T20:04:57.838Z,97371.73
2019-05-26T20:07:28.232Z,97366.77
2019-05-26T20:10:00.754Z,97364.20
2019-05-26T20:12:33.034Z,97360.45
2019-05-26T20:15:02.598Z,97363.26
2019-05-26T20:17:32.961Z,97364.08
2019-05-26T20:20:03.573Z,97375.86
2019-05-26T20:22:33.006Z,97366.30
2019-05-26T20:25:05.700Z,97370.90
2019-05-26T20:27:37.747Z,97371.50
2019-05-26T20:30:11.996Z,97371.52
2019-05-26T20:32:42.506Z,97371.50
2019-05-26T20:35:13.213Z,97372.28
2019-05-26T20:37:45.047Z,97372.30
2019-05-26T20:40:16.228Z,97375.09
2019-05-26T20:42:48.501Z,97375.31
2019-05-26T20:45:20.161Z,97376.48
2019-05-26T20:47:52.971Z,97372.89
2019-05-26T20:50:29.520Z,97372.71
2019-05-26T20:52:57.297Z,97373.13
2019-05-26T20:55:26.602Z,97373.90
2019-05-26T20:57:58.330Z,97365.34
2019-05-26T21:00:30.518Z,97373.72
2019-05-26T21:03:00.000Z,97368.34
2019-05-26T21:05:33.493Z,97370.13
2019-05-26T21:08:04.152Z,97372.30
2019-05-26T21:10:34.769Z,97372.52
2019-05-26T21:13:07.887Z,97373.09
2019-05-26T21:15:38.293Z,97373.87
2019-05-26T21:18:08.725Z,97369.90
2019-05-26T21:20:38.327Z,97367.30
2019-05-26T21:23:10.523Z,97373.45
2019-05-26T21:25:40.857Z,97377.44
2019-05-26T21:28:11.371Z,97374.20
2019-05-26T21:30:42.511Z,97367.41
2019-05-26T21:33:13.079Z,97369.20
2019-05-26T21:35:44.298Z,97368.98
2019-05-26T21:38:25.110Z,97376.55
2019-05-26T21:40:57.647Z,97380.31
2019-05-26T21:43:31.514Z,97374.93
2019-05-26T21:46:02.702Z,97382.29
2019-05-26T21:48:34.763Z,97383.88
2019-05-26T21:51:07.480Z,97382.55
2019-05-26T21:53:36.890Z,97386.57
2019-05-26T21:56:08.765Z,97390.22
2019-05-26T21:58:38.726Z,97388.43
2019-05-26T22:01:08.959Z,97400.58
2019-05-26T22:03:40.562Z,97394.23
2019-05-26T22:06:11.074Z,97389.23
2019-05-26T22:08:43.864Z,97391.84
2019-05-26T22:11:13.278Z,97390.62
2019-05-26T22:13:43.747Z,97388.46
2019-05-26T22:16:16.859Z,97383.25
2019-05-26T22:18:51.034Z,97384.66
2019-05-26T22:21:20.528Z,97381.83
2019-05-26T22:23:52.754Z,97383.83
2019-05-26T22:26:23.073Z,97373.86
2019-05-26T22:28:54.963Z,97378.66
2019-05-26T22:31:24.300Z,97380.05
2019-05-26T22:33:53.712Z,97384.19
2019-05-26T22:36:24.071Z,97375.39
2019-05-26T22:38:54.483Z,97380.18
2019-05-26T22:41:27.908Z,97378.97
2019-05-26T22:43:59.361Z,97373.41
2019-05-26T22:46:30.510Z,97372.45
2019-05-26T22:49:00.961Z,97378.25
2019-05-26T22:51:30.596Z,97367.88
2019-05-26T22:54:01.774Z,97365.50
2019-05-26T22:56:32.230Z,97368.69
2019-05-26T22:59:02.548Z,97366.50
2019-05-26T23:01:31.937Z,97366.31
2019-05-26T23:04:04.069Z,97363.92
2019-05-26T23:06:34.372Z,97364.45
2019-05-26T23:09:04.883Z,97359.62
2019-05-26T23:11:34.365Z,97359.57
2019-05-26T23:14:05.905Z,97359.71
2019-05-26T23:16:36.745Z,97357.85
2019-05-26T23:19:18.751Z,97356.02
2019-05-26T23:21:38.479Z,97352.40
2019-05-26T23:24:08.981Z,97350.36
2019-05-26T23:26:39.388Z,97349.34
2019-05-26T23:29:09.898Z,97354.61
2019-05-26T23:31:39.388Z,97341.06
2019-05-26T23:34:10.409Z,97341.45
2019-05-26T23:36:40.914Z,97346.19
2019-05-26T23:39:10.446Z,97349.76
2019-05-26T23:41:39.275Z,97347.93
2019-05-26T23:44:08.708Z,97341.52
2019-05-26T23:46:38.092Z,97338.49
2019-05-26T23:49:09.230Z,97339.50
2019-05-26T23:51:40.309Z,97339.66
2019-05-26T23:54:12.593Z,97333.11
2019-05-26T23:56:44.677Z,97336.45
2019-05-26T23:59:16.240Z,97331.23
